Time;durP1;ratioP1;P1;durP2;ratioP2;P2;SDS_P1;SDS_P2;PMS_P1;PMS_P2;Temp;Humidity;BMP_temperature;BMP_pressure;BME280_temperature;BME280_humidity;BME280_pressure;Samples;Min_cycle;Max_cycle;Signal;HPM_P1;HPM_P2
2023/09/05 00:01:13;;;;;;;5.27;4.40;;;;;;;;;;5054248;28;20459;-76
2023/09/05 00:03:40;;;;;;;11.50;4.83;;;;;;;;;;5054181;28;20477;-76
2023/09/05 00:06:10;;;;;;;6.83;5.20;;;;;;;;;;5054370;28;20475;-76
2023/09/05 00:08:37;;;;;;;7.53;4.70;;;;;;;;;;5054278;28;20983;-76
2023/09/05 00:11:04;;;;;;;10.10;4.70;;;;;;;;;;5054010;28;20515;-76
2023/09/05 00:13:31;;;;;;;8.07;4.83;;;;;;;;;;5054071;28;20487;-76
2023/09/05 00:15:59;;;;;;;10.83;4.67;;;;;;;;;;5053853;28;20456;-76
2023/09/05 00:18:26;;;;;;;7.30;5.10;;;;;;;;;;5054089;28;20451;-76
2023/09/05 00:20:54;;;;;;;5.40;4.90;;;;;;;;;;5054166;28;20461;-77
2023/09/05 00:23:23;;;;;;;6.00;4.23;;;;;;;;;;5053955;28;20542;-76
2023/09/05 00:25:50;;;;;;;8.40;4.83;;;;;;;;;;5053813;28;20949;-76
2023/09/05 00:28:18;;;;;;;5.97;4.60;;;;;;;;;;5054474;28;20583;-77
2023/09/05 00:30:45;;;;;;;5.50;4.40;;;;;;;;;;5056800;28;20453;-79
2023/09/05 00:33:13;;;;;;;7.00;4.70;;;;;;;;;;5057342;28;20486;-78
2023/09/05 00:35:40;;;;;;;4.80;4.30;;;;;;;;;;5058241;28;20822;-79
2023/09/05 00:38:07;;;;;;;6.27;4.70;;;;;;;;;;5056466;28;20820;-78
2023/09/05 00:40:36;;;;;;;7.53;4.97;;;;;;;;;;5057155;28;20445;-78
2023/09/05 00:43:03;;;;;;;5.57;4.50;;;;;;;;;;5053316;28;20473;-76
2023/09/05 00:45:31;;;;;;;7.23;5.20;;;;;;;;;;5053808;28;20540;-76
2023/09/05 00:48:00;;;;;;;7.27;5.37;;;;;;;;;;5053204;28;20988;-76
2023/09/05 00:50:28;;;;;;;9.20;4.40;;;;;;;;;;5053449;28;20518;-76
2023/09/05 00:52:55;;;;;;;11.00;5.73;;;;;;;;;;5053307;28;20457;-76
2023/09/05 00:55:22;;;;;;;9.03;6.73;;;;;;;;;;5053548;28;20441;-76
2023/09/05 00:57:51;;;;;;;12.87;4.80;;;;;;;;;;5052937;28;20789;-77
2023/09/05 01:00:18;;;;;;;7.13;4.87;;;;;;;;;;5053703;28;20462;-76
2023/09/05 01:02:45;;;;;;;5.70;5.10;;;;;;;;;;5053032;28;20550;-76
2023/09/05 01:05:13;;;;;;;8.83;5.30;;;;;;;;;;5053155;28;20464;-76
2023/09/05 01:07:46;;;;;;;10.30;4.70;;;;;;;;;;5052954;28;20484;-76
2023/09/05 01:10:16;;;;;;;10.90;5.07;;;;;;;;;;5053028;28;20456;-77
2023/09/05 01:12:43;;;;;;;9.33;5.57;;;;;;;;;;5053059;28;21058;-76
2023/09/05 01:15:12;;;;;;;9.77;4.90;;;;;;;;;;5053014;28;20460;-76
2023/09/05 01:17:39;;;;;;;9.03;5.27;;;;;;;;;;5053422;28;20445;-76
2023/09/05 01:20:07;;;;;;;7.50;6.07;;;;;;;;;;5053418;28;20456;-76
2023/09/05 01:22:36;;;;;;;7.13;5.50;;;;;;;;;;5053312;28;20490;-76
2023/09/05 01:25:05;;;;;;;8.90;5.80;;;;;;;;;;5052929;28;20455;-77
2023/09/05 01:27:32;;;;;;;10.27;5.60;;;;;;;;;;5053045;28;20902;-76
2023/09/05 01:30:00;;;;;;;10.23;6.10;;;;;;;;;;5054016;28;20448;-80
2023/09/05 01:32:27;;;;;;;6.60;5.53;;;;;;;;;;5057790;28;20472;-79
2023/09/05 01:34:54;;;;;;;9.60;5.70;;;;;;;;;;5056336;28;20513;-79
2023/09/05 01:37:21;;;;;;;6.80;5.60;;;;;;;;;;5056148;28;20457;-79
2023/09/05 01:39:48;;;;;;;7.93;5.07;;;;;;;;;;5057442;28;20822;-79
2023/09/05 01:42:17;;;;;;;8.47;6.07;;;;;;;;;;5058079;28;20465;-80
2023/09/05 01:44:44;;;;;;;7.00;5.70;;;;;;;;;;5058818;28;20457;-80
2023/09/05 01:47:11;;;;;;;8.37;6.20;;;;;;;;;;5057698;28;20484;-79
2023/09/05 01:49:38;;;;;;;7.90;6.37;;;;;;;;;;5060836;28;20459;-78
2023/09/05 01:52:05;;;;;;;7.23;5.20;;;;;;;;;;5061851;28;20459;-79
2023/09/05 01:54:32;;;;;;;11.47;6.60;;;;;;;;;;5061094;28;20531;-79
2023/09/05 01:56:59;;;;;;;9.93;6.00;;;;;;;;;;5061083;28;20456;-79
2023/09/05 01:59:28;;;;;;;21.20;6.40;;;;;;;;;;5061518;28;20543;-79
2023/09/05 02:01:55;;;;;;;11.87;6.57;;;;;;;;;;5060594;28;20437;-79
2023/09/05 02:04:22;;;;;;;14.93;7.17;;;;;;;;;;5060813;28;20502;-79
2023/09/05 02:06:49;;;;;;;9.60;5.00;;;;;;;;;;5060418;28;20452;-79
2023/09/05 02:09:17;;;;;;;8.50;5.83;;;;;;;;;;5061470;28;20452;-80
2023/09/05 02:11:44;;;;;;;6.10;5.03;;;;;;;;;;5064923;28;20453;-79
2023/09/05 02:14:11;;;;;;;9.00;5.93;;;;;;;;;;5060400;28;20476;-79
2023/09/05 02:16:39;;;;;;;11.80;6.30;;;;;;;;;;5060252;28;20464;-80
2023/09/05 02:19:06;;;;;;;15.83;6.73;;;;;;;;;;5059224;28;20451;-80
2023/09/05 02:21:33;;;;;;;18.23;6.73;;;;;;;;;;5060953;28;20472;-80
2023/09/05 02:24:01;;;;;;;11.30;6.87;;;;;;;;;;5059733;28;20465;-79
2023/09/05 02:26:28;;;;;;;11.30;6.77;;;;;;;;;;5060083;28;20991;-79
2023/09/05 02:28:58;;;;;;;15.40;8.37;;;;;;;;;;5059358;28;20484;-77
2023/09/05 02:31:25;;;;;;;12.90;7.10;;;;;;;;;;5056019;28;20451;-76
2023/09/05 02:33:54;;;;;;;12.43;7.30;;;;;;;;;;5056037;28;20859;-76
2023/09/05 02:36:21;;;;;;;11.50;7.50;;;;;;;;;;5056066;28;20455;-76
2023/09/05 02:38:48;;;;;;;12.00;6.70;;;;;;;;;;5056229;28;20449;-76
2023/09/05 02:41:16;;;;;;;11.87;6.60;;;;;;;;;;5055821;28;20445;-76
2023/09/05 02:43:43;;;;;;;7.80;6.60;;;;;;;;;;5056162;28;20476;-76
2023/09/05 02:46:10;;;;;;;9.10;6.40;;;;;;;;;;5055678;28;20820;-76
2023/09/05 02:48:39;;;;;;;9.27;6.57;;;;;;;;;;5055700;28;20492;-76
2023/09/05 02:51:08;;;;;;;10.97;6.40;;;;;;;;;;5055377;28;20461;-76
2023/09/05 02:53:36;;;;;;;8.23;6.60;;;;;;;;;;5055580;28;20461;-79
2023/09/05 02:56:03;;;;;;;9.77;6.73;;;;;;;;;;5059861;28;20455;-78
2023/09/05 02:58:32;;;;;;;7.60;5.90;;;;;;;;;;5057512;28;20441;-80
2023/09/05 03:01:00;;;;;;;9.07;7.57;;;;;;;;;;5056993;28;20824;-79
2023/09/05 03:03:27;;;;;;;7.30;6.13;;;;;;;;;;5058739;28;20977;-78
2023/09/05 03:05:54;;;;;;;7.50;6.37;;;;;;;;;;5058541;28;20561;-79
2023/09/05 03:08:23;;;;;;;6.87;5.40;;;;;;;;;;5059195;28;20510;-79
2023/09/05 03:10:51;;;;;;;7.63;6.57;;;;;;;;;;5060622;28;20476;-79
2023/09/05 03:13:18;;;;;;;7.17;5.97;;;;;;;;;;5060305;28;20476;-79
2023/09/05 03:15:45;;;;;;;8.20;6.40;;;;;;;;;;5059075;28;20453;-78
2023/09/05 03:18:12;;;;;;;7.80;6.20;;;;;;;;;;5059628;28;20484;-79
2023/09/05 03:20:40;;;;;;;6.03;5.27;;;;;;;;;;5060796;28;20457;-79
2023/09/05 03:23:07;;;;;;;8.33;5.73;;;;;;;;;;5059842;28;20465;-78
2023/09/05 03:25:36;;;;;;;8.90;6.77;;;;;;;;;;5059906;28;20453;-79
2023/09/05 03:28:03;;;;;;;6.40;5.60;;;;;;;;;;5058519;28;20512;-79
2023/09/05 03:30:30;;;;;;;6.57;5.97;;;;;;;;;;5058541;28;20965;-78
2023/09/05 03:32:57;;;;;;;6.80;6.10;;;;;;;;;;5059442;28;20560;-80
2023/09/05 03:35:24;;;;;;;8.30;6.37;;;;;;;;;;5057702;28;20449;-79
2023/09/05 03:37:51;;;;;;;11.20;7.17;;;;;;;;;;5058086;28;20444;-79
2023/09/05 03:40:19;;;;;;;9.07;7.00;;;;;;;;;;5057749;28;21047;-79
2023/09/05 03:42:48;;;;;;;8.60;5.73;;;;;;;;;;5056997;28;20479;-79
2023/09/05 03:45:16;;;;;;;10.80;6.73;;;;;;;;;;5058725;28;20543;-78
2023/09/05 03:47:43;;;;;;;7.97;6.40;;;;;;;;;;5057852;28;21008;-79
2023/09/05 03:50:10;;;;;;;10.30;7.37;;;;;;;;;;5058565;28;20530;-79
2023/09/05 03:52:37;;;;;;;13.43;7.03;;;;;;;;;;5058918;28;20483;-79
2023/09/05 03:55:05;;;;;;;9.23;6.60;;;;;;;;;;5057694;28;20460;-78
2023/09/05 03:57:33;;;;;;;7.07;6.30;;;;;;;;;;5058365;28;20833;-79
2023/09/05 04:00:01;;;;;;;14.07;8.07;;;;;;;;;;5057267;28;20453;-79
2023/09/05 04:02:28;;;;;;;8.63;5.87;;;;;;;;;;5056969;28;20516;-79
2023/09/05 04:04:55;;;;;;;12.83;8.00;;;;;;;;;;5058010;28;20824;-80
2023/09/05 04:07:23;;;;;;;12.33;7.20;;;;;;;;;;5057927;28;20457;-78
2023/09/05 04:09:50;;;;;;;10.77;6.73;;;;;;;;;;5058176;28;20484;-78
2023/09/05 04:12:17;;;;;;;9.60;7.20;;;;;;;;;;5057442;28;20488;-80
2023/09/05 04:14:45;;;;;;;12.17;7.37;;;;;;;;;;5058407;28;20821;-80
2023/09/05 04:17:13;;;;;;;8.80;5.90;;;;;;;;;;5059454;28;20978;-79
2023/09/05 04:19:40;;;;;;;6.97;5.80;;;;;;;;;;5058338;28;20441;-80
2023/09/05 04:22:07;;;;;;;10.20;6.40;;;;;;;;;;5056636;28;20543;-79
2023/09/05 04:24:34;;;;;;;10.93;6.93;;;;;;;;;;5058145;28;20440;-79
2023/09/05 04:27:02;;;;;;;9.70;7.00;;;;;;;;;;5058030;28;20449;-80
2023/09/05 04:29:32;;;;;;;9.83;7.10;;;;;;;;;;5058537;28;20495;-79
2023/09/05 04:31:59;;;;;;;8.50;6.70;;;;;;;;;;5057633;28;20457;-80
2023/09/05 04:34:29;;;;;;;10.73;7.77;;;;;;;;;;5056278;28;20452;-79
2023/09/05 04:36:57;;;;;;;10.23;7.03;;;;;;;;;;5055622;28;20463;-78
2023/09/05 04:39:24;;;;;;;9.50;6.60;;;;;;;;;;5055564;28;20456;-78
2023/09/05 04:41:51;;;;;;;9.73;7.00;;;;;;;;;;5056011;28;20460;-78
2023/09/05 04:44:19;;;;;;;11.73;6.47;;;;;;;;;;5055536;28;20440;-78
2023/09/05 04:46:46;;;;;;;14.83;5.90;;;;;;;;;;5055313;28;20512;-77
2023/09/05 04:49:13;;;;;;;8.50;6.30;;;;;;;;;;5056023;28;21015;-78
2023/09/05 04:51:41;;;;;;;9.00;6.33;;;;;;;;;;5055387;28;20569;-78
2023/09/05 04:54:09;;;;;;;8.93;6.60;;;;;;;;;;5054149;28;20556;-78
2023/09/05 04:56:36;;;;;;;9.73;7.60;;;;;;;;;;5054253;28;20447;-78
2023/09/05 04:59:03;;;;;;;9.73;6.70;;;;;;;;;;5053558;28;20905;-78
2023/09/05 05:01:30;;;;;;;11.10;6.70;;;;;;;;;;5053068;28;20452;-78
2023/09/05 05:03:57;;;;;;;8.97;6.37;;;;;;;;;;5052815;28;20563;-78
2023/09/05 05:06:28;;;;;;;8.90;6.30;;;;;;;;;;5053772;28;20449;-78
2023/09/05 05:08:57;;;;;;;8.70;5.87;;;;;;;;;;5053538;28;20520;-78
2023/09/05 05:11:24;;;;;;;9.80;6.20;;;;;;;;;;5053618;28;20490;-77
2023/09/05 05:13:51;;;;;;;10.83;6.30;;;;;;;;;;5052649;28;20840;-76
2023/09/05 05:16:18;;;;;;;13.40;6.80;;;;;;;;;;5052622;28;20453;-77
2023/09/05 05:18:45;;;;;;;8.70;5.90;;;;;;;;;;5052082;28;20512;-77
2023/09/05 05:21:13;;;;;;;10.80;7.43;;;;;;;;;;5052504;28;20459;-77
2023/09/05 05:23:40;;;;;;;10.13;6.73;;;;;;;;;;5051683;28;20555;-78
2023/09/05 05:26:08;;;;;;;16.93;7.70;;;;;;;;;;5052136;28;20832;-77
2023/09/05 05:28:35;;;;;;;15.57;7.10;;;;;;;;;;5069044;28;20486;-77
2023/09/05 05:31:02;;;;;;;7.13;6.30;;;;;;;;;;5072115;28;20452;-77
2023/09/05 05:33:30;;;;;;;10.20;6.13;;;;;;;;;;5072497;28;20472;-77
2023/09/05 05:35:58;;;;;;;9.73;5.87;;;;;;;;;;5070708;28;20513;-76
2023/09/05 05:38:25;;;;;;;14.93;6.50;;;;;;;;;;5072082;28;20499;-76
2023/09/05 05:40:52;;;;;;;10.70;6.40;;;;;;;;;;5071493;28;20459;-76
2023/09/05 05:43:21;;;;;;;10.20;7.50;;;;;;;;;;5071687;28;20472;-76
2023/09/05 05:45:52;;;;;;;6.17;5.27;;;;;;;;;;5071674;28;20948;-76
2023/09/05 05:48:19;;;;;;;9.80;5.90;;;;;;;;;;5071638;28;20494;-76
2023/09/05 05:50:46;;;;;;;14.10;6.30;;;;;;;;;;5072023;28;20448;-76
2023/09/05 05:53:13;;;;;;;12.80;6.27;;;;;;;;;;5071728;28;20475;-76
2023/09/05 05:55:41;;;;;;;7.97;5.80;;;;;;;;;;5071823;28;20451;-76
2023/09/05 05:58:08;;;;;;;9.77;6.07;;;;;;;;;;5071711;28;20451;-76
2023/09/05 06:00:36;;;;;;;10.73;6.27;;;;;;;;;;5072006;28;20874;-76
2023/09/05 06:03:04;;;;;;;7.17;5.50;;;;;;;;;;5071888;28;21029;-76
2023/09/05 06:05:31;;;;;;;11.70;6.83;;;;;;;;;;5071902;28;20451;-76
2023/09/05 06:07:59;;;;;;;9.27;5.20;;;;;;;;;;5071405;28;20443;-76
2023/09/05 06:10:26;;;;;;;7.70;5.40;;;;;;;;;;5071438;28;21012;-77
2023/09/05 06:12:54;;;;;;;9.23;4.37;;;;;;;;;;5072011;28;20472;-77
2023/09/05 06:15:21;;;;;;;10.17;4.90;;;;;;;;;;5071690;28;20934;-77
2023/09/05 06:17:49;;;;;;;9.17;5.73;;;;;;;;;;5072140;28;20451;-76
2023/09/05 06:20:16;;;;;;;9.33;5.53;;;;;;;;;;5072230;28;20448;-77
2023/09/05 06:22:44;;;;;;;5.87;5.17;;;;;;;;;;5071723;28;20497;-77
2023/09/05 06:25:11;;;;;;;6.63;5.10;;;;;;;;;;5071833;28;20940;-77
2023/09/05 06:27:43;;;;;;;6.80;4.30;;;;;;;;;;5071692;28;20474;-76
2023/09/05 06:30:10;;;;;;;7.70;4.83;;;;;;;;;;5071961;28;20507;-77
2023/09/05 06:32:37;;;;;;;7.37;4.63;;;;;;;;;;5070755;28;20824;-76
2023/09/05 06:35:06;;;;;;;7.80;4.07;;;;;;;;;;5072572;28;20451;-76
2023/09/05 06:37:34;;;;;;;12.10;4.20;;;;;;;;;;5075093;28;20452;-76
2023/09/05 06:40:01;;;;;;;9.57;5.00;;;;;;;;;;5076061;28;20440;-76
2023/09/05 06:42:30;;;;;;;7.17;4.33;;;;;;;;;;5075065;28;20476;-78
2023/09/05 06:44:57;;;;;;;6.93;3.97;;;;;;;;;;5075474;28;20451;-77
2023/09/05 06:47:24;;;;;;;5.30;4.03;;;;;;;;;;5075427;28;20455;-77
2023/09/05 06:49:52;;;;;;;6.03;4.30;;;;;;;;;;5073796;28;20837;-76
2023/09/05 06:52:20;;;;;;;4.70;3.60;;;;;;;;;;5073630;28;20471;-77
2023/09/05 06:54:47;;;;;;;4.87;3.90;;;;;;;;;;5075307;28;20452;-76
2023/09/05 06:57:14;;;;;;;8.23;4.40;;;;;;;;;;5074870;28;20483;-77
2023/09/05 06:59:41;;;;;;;8.87;4.13;;;;;;;;;;5075496;28;20495;-78
2023/09/05 07:02:08;;;;;;;8.10;4.10;;;;;;;;;;5075659;28;20464;-78
2023/09/05 07:04:36;;;;;;;4.27;3.77;;;;;;;;;;5076215;28;20809;-75
2023/09/05 07:07:04;;;;;;;9.20;3.83;;;;;;;;;;5074883;28;20505;-76
2023/09/05 07:09:33;;;;;;;3.47;3.17;;;;;;;;;;5075290;28;21010;-78
2023/09/05 07:12:00;;;;;;;4.47;3.57;;;;;;;;;;5074841;28;20505;-77
2023/09/05 07:14:28;;;;;;;5.27;4.20;;;;;;;;;;5075120;28;20443;-76
2023/09/05 07:16:55;;;;;;;5.00;3.87;;;;;;;;;;5075222;28;20805;-77
2023/09/05 07:19:22;;;;;;;4.97;4.10;;;;;;;;;;5074569;28;20543;-78
2023/09/05 07:21:49;;;;;;;6.80;4.30;;;;;;;;;;5075377;28;20448;-77
2023/09/05 07:24:17;;;;;;;5.37;4.00;;;;;;;;;;5074789;28;20468;-78
2023/09/05 07:26:45;;;;;;;5.70;3.60;;;;;;;;;;5075052;28;20470;-79
2023/09/05 07:29:13;;;;;;;7.33;4.37;;;;;;;;;;5075804;28;20897;-77
2023/09/05 07:31:40;;;;;;;6.20;3.73;;;;;;;;;;5070561;28;20466;-77
2023/09/05 07:34:08;;;;;;;5.77;4.10;;;;;;;;;;5053225;28;20483;-76
2023/09/05 07:36:36;;;;;;;7.50;3.97;;;;;;;;;;5052754;28;20499;-77
2023/09/05 07:39:04;;;;;;;9.37;4.27;;;;;;;;;;5053447;28;20494;-77
2023/09/05 07:41:32;;;;;;;6.47;5.77;;;;;;;;;;5053659;28;20941;-77
2023/09/05 07:44:00;;;;;;;5.37;4.37;;;;;;;;;;5053421;28;20465;-78
2023/09/05 07:46:28;;;;;;;6.63;3.80;;;;;;;;;;5052730;28;20463;-77
2023/09/05 07:48:55;;;;;;;9.90;3.87;;;;;;;;;;5052744;28;20564;-76
2023/09/05 07:51:22;;;;;;;4.43;3.53;;;;;;;;;;5054021;28;20528;-79
2023/09/05 07:53:50;;;;;;;4.70;3.37;;;;;;;;;;5055806;28;20484;-79
2023/09/05 07:56:18;;;;;;;6.20;3.20;;;;;;;;;;5055441;28;20468;-78
2023/09/05 07:58:45;;;;;;;4.10;3.70;;;;;;;;;;5053266;28;20458;-77
2023/09/05 08:01:14;;;;;;;3.63;3.30;;;;;;;;;;5054797;28;20900;-78
2023/09/05 08:03:41;;;;;;;5.67;3.30;;;;;;;;;;5057349;28;20492;-79
2023/09/05 08:06:08;;;;;;;4.70;3.50;;;;;;;;;;5057355;28;20698;-79
2023/09/05 08:08:35;;;;;;;10.97;4.20;;;;;;;;;;5056023;28;20453;-80
2023/09/05 08:11:02;;;;;;;10.90;4.20;;;;;;;;;;5057210;28;20520;-79
2023/09/05 08:13:30;;;;;;;4.23;3.70;;;;;;;;;;5056206;28;21000;-76
2023/09/05 08:15:57;;;;;;;4.20;3.47;;;;;;;;;;5056593;28;20455;-80
2023/09/05 08:18:26;;;;;;;4.10;3.77;;;;;;;;;;5057143;28;20452;-80
2023/09/05 08:20:53;;;;;;;5.63;3.87;;;;;;;;;;5056641;28;20453;-80
2023/09/05 08:23:20;;;;;;;10.73;4.27;;;;;;;;;;5057082;28;20469;-79
2023/09/05 08:25:51;;;;;;;5.70;4.33;;;;;;;;;;5056755;28;20461;-79
2023/09/05 08:28:18;;;;;;;4.10;3.70;;;;;;;;;;5055618;28;20468;-80
2023/09/05 08:30:46;;;;;;;4.60;3.30;;;;;;;;;;5056176;28;20488;-80
2023/09/05 08:33:13;;;;;;;9.10;4.17;;;;;;;;;;5056907;28;20480;-79
2023/09/05 08:35:41;;;;;;;5.83;3.20;;;;;;;;;;5056557;28;20518;-79
2023/09/05 08:38:09;;;;;;;3.50;3.20;;;;;;;;;;5058332;28;20445;-78
2023/09/05 08:40:36;;;;;;;3.87;3.03;;;;;;;;;;5056896;28;20452;-78
2023/09/05 08:43:03;;;;;;;6.40;3.53;;;;;;;;;;5056357;28;20483;-77
2023/09/05 08:45:32;;;;;;;8.00;4.00;;;;;;;;;;5057158;28;20478;-78
2023/09/05 08:47:59;;;;;;;8.37;4.00;;;;;;;;;;5060092;28;20521;-77
2023/09/05 08:50:26;;;;;;;5.07;3.50;;;;;;;;;;5054540;28;20859;-78
2023/09/05 08:52:57;;;;;;;4.57;4.17;;;;;;;;;;5054027;28;20507;-77
2023/09/05 08:55:24;;;;;;;4.13;3.30;;;;;;;;;;5054048;28;20989;-78
2023/09/05 08:57:53;;;;;;;5.37;3.87;;;;;;;;;;5052358;28;20457;-77
2023/09/05 09:00:21;;;;;;;4.00;3.60;;;;;;;;;;5051572;28;20456;-77
2023/09/05 09:02:48;;;;;;;6.47;3.50;;;;;;;;;;5053206;28;20922;-79
2023/09/05 09:05:18;;;;;;;4.07;3.33;;;;;;;;;;5059262;28;20467;-79
2023/09/05 09:07:46;;;;;;;4.47;4.07;;;;;;;;;;5060558;28;20464;-78
2023/09/05 09:10:23;;;;;;;4.80;4.27;;;;;;;;;;5060354;28;20492;-78
2023/09/05 09:12:54;;;;;;;7.87;3.83;;;;;;;;;;5059583;28;20476;-78
2023/09/05 09:15:21;;;;;;;4.53;4.10;;;;;;;;;;5058567;28;20467;-78
2023/09/05 09:17:50;;;;;;;5.93;4.23;;;;;;;;;;5058971;28;20539;-78
2023/09/05 09:20:19;;;;;;;5.23;3.70;;;;;;;;;;5057333;28;20934;-81
2023/09/05 09:22:50;;;;;;;5.30;3.30;;;;;;;;;;5056985;28;20480;-81
2023/09/05 09:25:20;;;;;;;5.90;3.13;;;;;;;;;;5057750;28;20892;-80
2023/09/05 09:27:53;;;;;;;4.70;3.87;;;;;;;;;;5058028;28;20543;-81
2023/09/05 09:30:23;;;;;;;4.40;3.83;;;;;;;;;;5064907;28;20573;-79
2023/09/05 09:32:52;;;;;;;6.07;4.27;;;;;;;;;;5079123;28;20483;-81
2023/09/05 09:35:19;;;;;;;4.73;3.30;;;;;;;;;;5078413;28;20454;-80
2023/09/05 09:37:47;;;;;;;5.57;4.47;;;;;;;;;;5076966;28;20814;-77
2023/09/05 09:40:16;;;;;;;3.80;3.40;;;;;;;;;;5076481;28;20547;-79
2023/09/05 09:42:44;;;;;;;4.60;3.27;;;;;;;;;;5071365;28;20503;-77
2023/09/05 09:45:13;;;;;;;5.57;3.70;;;;;;;;;;5073477;28;20455;-77
2023/09/05 09:47:46;;;;;;;6.57;4.50;;;;;;;;;;5071719;28;20455;-77
2023/09/05 09:50:14;;;;;;;9.03;4.37;;;;;;;;;;5075843;28;20960;-78
2023/09/05 09:52:44;;;;;;;6.77;3.90;;;;;;;;;;5077354;28;20475;-78
2023/09/05 09:55:13;;;;;;;6.10;4.50;;;;;;;;;;5076917;28;20456;-79
2023/09/05 09:57:45;;;;;;;5.60;4.03;;;;;;;;;;5073919;28;20527;-77
2023/09/05 10:00:18;;;;;;;5.50;3.63;;;;;;;;;;5072757;28;20444;-77
2023/09/05 10:02:47;;;;;;;6.93;4.40;;;;;;;;;;5074000;28;20479;-77
2023/09/05 10:05:16;;;;;;;4.47;3.60;;;;;;;;;;5072891;28;20459;-77
2023/09/05 10:07:45;;;;;;;8.33;4.70;;;;;;;;;;5073263;28;20532;-77
2023/09/05 10:10:15;;;;;;;4.80;4.03;;;;;;;;;;5074210;28;20487;-77
2023/09/05 10:12:44;;;;;;;6.80;4.30;;;;;;;;;;5079578;28;21046;-77
2023/09/05 10:15:15;;;;;;;12.07;4.40;;;;;;;;;;5079810;28;20813;-78
2023/09/05 10:17:43;;;;;;;5.50;4.57;;;;;;;;;;5079250;28;20463;-77
2023/09/05 10:20:14;;;;;;;6.17;5.30;;;;;;;;;;5078920;28;20498;-79
2023/09/05 10:22:43;;;;;;;5.47;4.00;;;;;;;;;;5078530;28;20513;-76
2023/09/05 10:25:11;;;;;;;4.93;4.20;;;;;;;;;;5075853;28;20447;-76
2023/09/05 10:27:38;;;;;;;4.90;3.33;;;;;;;;;;5075903;28;20456;-76
2023/09/05 10:30:12;;;;;;;9.07;4.63;;;;;;;;;;5077893;28;20479;-77
2023/09/05 10:32:44;;;;;;;7.37;4.03;;;;;;;;;;5077583;28;20896;-80
2023/09/05 10:35:12;;;;;;;6.10;3.90;;;;;;;;;;5077286;28;20476;-77
2023/09/05 10:37:50;;;;;;;5.00;3.67;;;;;;;;;;5076622;28;20448;-77
2023/09/05 10:40:25;;;;;;;5.30;3.50;;;;;;;;;;5076901;28;20816;-76
2023/09/05 10:42:55;;;;;;;8.20;3.97;;;;;;;;;;5077188;28;20466;-77
2023/09/05 10:45:33;;;;;;;7.10;4.67;;;;;;;;;;5076752;28;20448;-77
2023/09/05 10:48:12;;;;;;;6.43;4.27;;;;;;;;;;5080538;28;20458;-79
2023/09/05 10:50:58;;;;;;;8.10;4.60;;;;;;;;;;5077334;28;20482;-79
2023/09/05 10:53:25;;;;;;;11.03;4.80;;;;;;;;;;5076269;28;20968;-80
2023/09/05 10:55:54;;;;;;;11.60;4.40;;;;;;;;;;5076777;28;20450;-78
2023/09/05 10:58:41;;;;;;;8.73;3.67;;;;;;;;;;5076127;28;20459;-80
2023/09/05 11:01:29;;;;;;;5.27;4.00;;;;;;;;;;5077437;28;20463;-79
2023/09/05 11:03:58;;;;;;;5.83;4.33;;;;;;;;;;5077977;28;20927;-79
2023/09/05 11:06:26;;;;;;;4.90;4.17;;;;;;;;;;5078690;28;20907;-80
2023/09/05 11:08:57;;;;;;;4.50;4.03;;;;;;;;;;5077667;28;20442;-79
2023/09/05 11:11:25;;;;;;;4.20;3.80;;;;;;;;;;5077968;28;20513;-80
2023/09/05 11:13:54;;;;;;;5.10;4.27;;;;;;;;;;5077195;28;20468;-77
2023/09/05 11:16:23;;;;;;;6.23;4.17;;;;;;;;;;5077899;28;20464;-79
2023/09/05 11:18:56;;;;;;;4.27;3.57;;;;;;;;;;5079013;28;20521;-79
2023/09/05 11:21:27;;;;;;;7.30;3.50;;;;;;;;;;5077509;28;20452;-78
2023/09/05 11:23:55;;;;;;;5.03;3.93;;;;;;;;;;5078826;28;20876;-79
2023/09/05 11:26:22;;;;;;;4.23;3.43;;;;;;;;;;5077304;28;20451;-79
2023/09/05 11:28:51;;;;;;;4.20;3.80;;;;;;;;;;5076750;28;20448;-79
2023/09/05 11:31:21;;;;;;;5.20;3.90;;;;;;;;;;5075753;28;20571;-78
2023/09/05 11:33:49;;;;;;;4.10;3.70;;;;;;;;;;5076296;28;20844;-79
2023/09/05 11:36:16;;;;;;;6.10;3.77;;;;;;;;;;5075480;28;20467;-79
2023/09/05 11:38:47;;;;;;;7.90;3.50;;;;;;;;;;5076146;28;20460;-77
2023/09/05 11:41:14;;;;;;;4.17;3.73;;;;;;;;;;5076433;28;20421;-77
2023/09/05 11:43:45;;;;;;;7.40;3.10;;;;;;;;;;5075647;28;20472;-79
2023/09/05 11:46:13;;;;;;;4.17;3.37;;;;;;;;;;5075959;28;20440;-78
2023/09/05 11:48:44;;;;;;;5.00;3.60;;;;;;;;;;5075758;28;20488;-78
2023/09/05 11:51:14;;;;;;;5.03;3.37;;;;;;;;;;5076210;28;20562;-79
2023/09/05 11:53:41;;;;;;;5.03;3.83;;;;;;;;;;5078919;28;20472;-79
2023/09/05 11:56:10;;;;;;;5.37;4.20;;;;;;;;;;5078504;28;20454;-80
2023/09/05 11:58:38;;;;;;;4.30;3.57;;;;;;;;;;5079071;28;20456;-80
2023/09/05 12:01:05;;;;;;;4.57;4.13;;;;;;;;;;5078605;28;20476;-79
2023/09/05 12:03:59;;;;;;;5.60;3.60;;;;;;;;;;5083355;28;20490;-79
2023/09/05 12:06:27;;;;;;;3.53;3.23;;;;;;;;;;5072971;28;20452;-77
2023/09/05 12:08:54;;;;;;;3.50;3.13;;;;;;;;;;5077008;28;20480;-77
2023/09/05 12:11:26;;;;;;;5.80;3.70;;;;;;;;;;5076941;28;20495;-77
2023/09/05 12:13:57;;;;;;;3.87;3.33;;;;;;;;;;5075520;28;20471;-77
2023/09/05 12:16:24;;;;;;;5.10;4.60;;;;;;;;;;5075234;28;20429;-79
2023/09/05 12:18:58;;;;;;;6.17;4.37;;;;;;;;;;5078196;28;20915;-78
2023/09/05 12:21:26;;;;;;;4.00;3.57;;;;;;;;;;5078364;28;20526;-78
2023/09/05 12:23:53;;;;;;;6.50;3.43;;;;;;;;;;5082727;28;20476;-79
2023/09/05 12:26:21;;;;;;;5.93;3.30;;;;;;;;;;5079188;28;20454;-79
2023/09/05 12:28:58;;;;;;;7.70;3.87;;;;;;;;;;5080182;28;20533;-78
2023/09/05 12:31:26;;;;;;;7.03;4.27;;;;;;;;;;5080037;28;20490;-79
2023/09/05 12:33:56;;;;;;;4.47;3.43;;;;;;;;;;5080242;28;20483;-78
2023/09/05 12:36:28;;;;;;;4.00;3.57;;;;;;;;;;5079329;28;20435;-78
2023/09/05 12:38:55;;;;;;;5.50;4.20;;;;;;;;;;5079320;28;21005;-79
2023/09/05 12:41:23;;;;;;;4.93;3.93;;;;;;;;;;5081095;28;20464;-78
2023/09/05 12:43:50;;;;;;;5.90;3.93;;;;;;;;;;5080428;28;20566;-77
2023/09/05 12:46:18;;;;;;;5.67;3.80;;;;;;;;;;5079630;28;20448;-78
2023/09/05 12:48:47;;;;;;;4.20;3.50;;;;;;;;;;5079695;28;20454;-78
2023/09/05 12:51:16;;;;;;;6.00;3.40;;;;;;;;;;5080426;28;20507;-78
2023/09/05 12:53:44;;;;;;;5.67;3.87;;;;;;;;;;5079708;28;20586;-78
2023/09/05 12:56:11;;;;;;;4.60;3.63;;;;;;;;;;5076846;28;20460;-78
2023/09/05 12:58:39;;;;;;;6.00;3.70;;;;;;;;;;5075633;28;20471;-78
2023/09/05 13:01:08;;;;;;;5.10;3.43;;;;;;;;;;5074867;28;20482;-78
2023/09/05 13:03:36;;;;;;;5.40;3.93;;;;;;;;;;5072296;28;20503;-80
2023/09/05 13:06:04;;;;;;;4.40;3.70;;;;;;;;;;5073569;28;20448;-78
2023/09/05 13:08:32;;;;;;;5.70;3.80;;;;;;;;;;5074254;28;20539;-77
2023/09/05 13:10:59;;;;;;;4.87;3.53;;;;;;;;;;5074696;28;20495;-79
2023/09/05 13:13:26;;;;;;;5.63;3.10;;;;;;;;;;5074625;28;20978;-77
2023/09/05 13:15:53;;;;;;;9.50;3.70;;;;;;;;;;5074842;28;20447;-79
2023/09/05 13:18:20;;;;;;;7.70;4.20;;;;;;;;;;5073625;28;20476;-78
2023/09/05 13:20:50;;;;;;;4.03;3.63;;;;;;;;;;5074847;28;20815;-79
2023/09/05 13:23:17;;;;;;;5.47;3.63;;;;;;;;;;5074131;28;20472;-78
2023/09/05 13:25:46;;;;;;;4.00;3.37;;;;;;;;;;5074475;28;20818;-78
2023/09/05 13:28:13;;;;;;;3.33;2.90;;;;;;;;;;5074129;28;20460;-80
2023/09/05 13:30:41;;;;;;;3.47;3.17;;;;;;;;;;5074560;28;20574;-78
2023/09/05 13:33:09;;;;;;;6.00;4.20;;;;;;;;;;5074948;28;20479;-80
2023/09/05 13:35:37;;;;;;;16.07;5.30;;;;;;;;;;5075293;28;20497;-80
2023/09/05 13:38:05;;;;;;;5.83;3.70;;;;;;;;;;5074051;28;20604;-79
2023/09/05 13:40:33;;;;;;;6.00;3.93;;;;;;;;;;5074810;28;20505;-79
2023/09/05 13:43:01;;;;;;;6.00;3.73;;;;;;;;;;5074031;28;20456;-78
2023/09/05 13:45:28;;;;;;;7.40;3.67;;;;;;;;;;5074529;28;20538;-76
2023/09/05 13:47:56;;;;;;;4.30;3.70;;;;;;;;;;5075797;28;20943;-78
2023/09/05 13:50:23;;;;;;;5.10;3.80;;;;;;;;;;5077340;28;20432;-78
2023/09/05 13:52:50;;;;;;;4.30;3.60;;;;;;;;;;5075441;28;20501;-78
2023/09/05 13:55:19;;;;;;;4.97;3.43;;;;;;;;;;5075863;28;20451;-78
2023/09/05 13:57:48;;;;;;;5.27;4.03;;;;;;;;;;5076713;28;20456;-77
2023/09/05 14:00:18;;;;;;;4.37;3.93;;;;;;;;;;5076334;28;20554;-77
2023/09/05 14:02:46;;;;;;;10.03;4.00;;;;;;;;;;5076080;28;20508;-78
2023/09/05 14:05:14;;;;;;;3.97;3.67;;;;;;;;;;5076657;28;20830;-77
2023/09/05 14:07:41;;;;;;;7.03;3.23;;;;;;;;;;5076314;28;20500;-78
2023/09/05 14:10:10;;;;;;;3.93;3.30;;;;;;;;;;5077103;28;20602;-78
2023/09/05 14:12:38;;;;;;;6.00;3.50;;;;;;;;;;5075753;28;20487;-77
2023/09/05 14:15:06;;;;;;;3.37;3.10;;;;;;;;;;5077535;28;20464;-77
2023/09/05 14:17:33;;;;;;;4.93;3.57;;;;;;;;;;5075727;28;20462;-77
2023/09/05 14:20:00;;;;;;;4.53;3.03;;;;;;;;;;5075908;28;20458;-78
2023/09/05 14:22:27;;;;;;;6.63;3.70;;;;;;;;;;5075744;28;20472;-77
2023/09/05 14:24:54;;;;;;;3.97;3.53;;;;;;;;;;5076237;28;20450;-77
2023/09/05 14:27:22;;;;;;;5.20;3.83;;;;;;;;;;5075333;28;20452;-78
2023/09/05 14:29:50;;;;;;;5.40;3.90;;;;;;;;;;5075983;28;20815;-78
2023/09/05 14:32:17;;;;;;;4.03;3.60;;;;;;;;;;5076266;28;20807;-77
2023/09/05 14:34:44;;;;;;;5.23;3.83;;;;;;;;;;5075962;28;20451;-77
2023/09/05 14:37:11;;;;;;;6.83;4.70;;;;;;;;;;5075490;28;20454;-77
2023/09/05 14:39:39;;;;;;;4.10;3.80;;;;;;;;;;5075207;28;20447;-78
2023/09/05 14:42:07;;;;;;;6.93;3.80;;;;;;;;;;5075631;28;20479;-77
2023/09/05 14:44:35;;;;;;;3.80;3.40;;;;;;;;;;5075659;28;20452;-77
2023/09/05 14:47:05;;;;;;;7.03;3.60;;;;;;;;;;5076096;28;20830;-78